Terminal Aerodrome Forecast
Issued by NWS

Home | Current Version | Previous Version | Text Only | Print | Product List | Glossary On
Versions: 1 2 3 4 5 6 7 8 9 10 11 12 13
000
FTUS41 KBTV 300523
TAFRUT
TAF
KRUT 300523Z 3006/0106 15005KT P6SM SCT045 BKN150
     FM301400 17007KT P6SM SCT120
     FM302000 18006KT P6SM VCSH BKN100
      AMD LTD TO CLD VIS AND WIND=

USA.gov is the U.S. government's official web portal to all federal, state and local government web resources and services.